Time;durP1;ratioP1;P1;durP2;ratioP2;P2;SDS_P1;SDS_P2;PMS_P1;PMS_P2;Temp;Humidity;BMP_temperature;BMP_pressure;BME280_temperature;BME280_humidity;BME280_pressure;Samples;Min_cycle;Max_cycle;Signal;HPM_P1;HPM_P2
2023/08/25 00:01:38;;;;;;;;;;;;;;;;;;4916203;29;19930;-91
2023/08/25 00:04:05;;;;;;;;;;;;;;;;;;4927588;29;20013;-90
2023/08/25 00:06:31;;;;;;;;;;;;;;;;;;4906980;29;20369;-91
2023/08/25 00:08:57;;;;;;;;;;;;;;;;;;4913413;29;20021;-90
2023/08/25 00:11:23;;;;;;;;;;;;;;;;;;4913793;29;19910;-91
2023/08/25 00:13:49;;;;;;;;;;;;;;;;;;4914258;29;20286;-91
2023/08/25 00:16:15;;;;;;;;;;;;;;;;;;4921181;29;20006;-91
2023/08/25 00:18:41;;;;;;;;;;;;;;;;;;4919442;29;20319;-91
2023/08/25 00:21:06;;;;;;;;;;;;;;;;;;4912145;29;19965;-91
2023/08/25 00:23:32;;;;;;;;;;;;;;;;;;4913627;29;19911;-91
2023/08/25 00:25:59;;;;;;;;;;;;;;;;;;4926723;29;20079;-91
2023/08/25 00:28:25;;;;;;;;;;;;;;;;;;4916178;29;19911;-91
2023/08/25 00:30:51;;;;;;;;;;;;;;;;;;4919673;29;19910;-91
2023/08/25 00:33:17;;;;;;;;;;;;;;;;;;4919686;29;19911;-91
2023/08/25 00:35:43;;;;;;;;;;;;;;;;;;4919346;29;20144;-90
2023/08/25 00:38:09;;;;;;;;;;;;;;;;;;4919814;29;21480;-93
2023/08/25 00:40:35;;;;;;;;;;;;;;;;;;4916314;29;19914;-94
2023/08/25 00:43:03;;;;;;;;;;;;;;;;;;4918026;29;20193;-93
2023/08/25 00:45:29;;;;;;;;;;;;;;;;;;4911461;29;19915;-92
2023/08/25 00:47:54;;;;;;;;;;;;;;;;;;4912146;29;19915;-93
2023/08/25 00:50:20;;;;;;;;;;;;;;;;;;4913201;29;19947;-92
2023/08/25 00:52:46;;;;;;;;;;;;;;;;;;4912096;29;19922;-94
2023/08/25 00:55:12;;;;;;;;;;;;;;;;;;4914012;29;19923;-94
2023/08/25 00:57:41;;;;;;;;;;;;;;;;;;4922024;29;19911;-95
2023/08/25 01:00:11;;;;;;;;;;;;;;;;;;4925016;28;19928;-95
2023/08/25 01:02:37;;;;;;;;;;;;;;;;;;4929041;28;19921;-93
2023/08/25 01:05:03;;;;;;;;;;;;;;;;;;4934142;29;20239;-92
2023/08/25 01:07:29;;;;;;;;;;;;;;;;;;4930164;28;20232;-93
2023/08/25 01:09:55;;;;;;;;;;;;;;;;;;4935042;28;19910;-94
2023/08/25 01:12:21;;;;;;;;;;;;;;;;;;4929354;29;19926;-93
2023/08/25 01:14:47;;;;;;;;;;;;;;;;;;4936262;28;19914;-95
2023/08/25 01:17:13;;;;;;;;;;;;;;;;;;4928884;29;19949;-93
2023/08/25 01:19:39;;;;;;;;;;;;;;;;;;4937946;28;19910;-94
2023/08/25 01:22:05;;;;;;;;;;;;;;;;;;4929319;29;19958;-94
2023/08/25 01:24:31;;;;;;;;;;;;;;;;;;4935340;29;19910;-93
2023/08/25 01:27:00;;;;;;;;;;;;;;;;;;4929993;29;19946;-94
2023/08/25 01:29:26;;;;;;;;;;;;;;;;;;4926669;28;19940;-94
2023/08/25 01:31:52;;;;;;;;;;;;;;;;;;4930810;29;19914;-95
2023/08/25 01:34:18;;;;;;;;;;;;;;;;;;4933682;29;19916;-92
2023/08/25 01:36:44;;;;;;;;;;;;;;;;;;4940808;29;19914;-94
2023/08/25 01:39:10;;;;;;;;;;;;;;;;;;4938745;29;19915;-92
2023/08/25 01:41:36;;;;;;;;;;;;;;;;;;4929270;29;19925;-94
2023/08/25 01:44:05;;;;;;;;;;;;;;;;;;4937559;29;20345;-92
2023/08/25 01:46:31;;;;;;;;;;;;;;;;;;4933087;28;19954;-90
2023/08/25 01:48:57;;;;;;;;;;;;;;;;;;4936829;29;20414;-89
2023/08/25 01:51:23;;;;;;;;;;;;;;;;;;4948637;28;19957;-90
2023/08/25 01:53:49;;;;;;;;;;;;;;;;;;4928141;29;19921;-92
2023/08/25 01:56:14;;;;;;;;;;;;;;;;;;4933963;28;19937;-92
2023/08/25 01:58:40;;;;;;;;;;;;;;;;;;4933345;29;19914;-91
2023/08/25 02:01:13;;;;;;;;;;;;;;;;;;4936491;28;19933;-91
2023/08/25 02:03:39;;;;;;;;;;;;;;;;;;4914614;29;19921;-93
2023/08/25 02:06:05;;;;;;;;;;;;;;;;;;4918125;29;19915;-92
2023/08/25 02:08:31;;;;;;;;;;;;;;;;;;4932976;29;19914;-91
2023/08/25 02:10:57;;;;;;;;;;;;;;;;;;4917666;29;19910;-90
2023/08/25 02:13:22;;;;;;;;;;;;;;;;;;4920700;29;20262;-91
2023/08/25 02:15:48;;;;;;;;;;;;;;;;;;4924904;29;20299;-90
2023/08/25 02:18:18;;;;;;;;;;;;;;;;;;4914890;29;19910;-90
2023/08/25 02:20:43;;;;;;;;;;;;;;;;;;4918148;29;19921;-91
2023/08/25 02:23:09;;;;;;;;;;;;;;;;;;4933448;29;19986;-92
2023/08/25 02:25:35;;;;;;;;;;;;;;;;;;4922810;29;19997;-91
2023/08/25 02:28:02;;;;;;;;;;;;;;;;;;4925302;29;19977;-92
2023/08/25 02:30:27;;;;;;;;;;;;;;;;;;4934747;29;19914;-92
2023/08/25 02:32:55;;;;;;;;;;;;;;;;;;4918715;29;19918;-93
2023/08/25 02:35:24;;;;;;;;;;;;;;;;;;4927264;29;19919;-92
2023/08/25 02:37:49;;;;;;;;;;;;;;;;;;4934565;29;19911;-92
2023/08/25 02:40:15;;;;;;;;;;;;;;;;;;4940596;29;20613;-91
2023/08/25 02:42:41;;;;;;;;;;;;;;;;;;4931928;29;19915;-91
2023/08/25 02:45:07;;;;;;;;;;;;;;;;;;4919632;29;19915;-91
2023/08/25 02:47:33;;;;;;;;;;;;;;;;;;4917949;29;19918;-90
2023/08/25 02:49:59;;;;;;;;;;;;;;;;;;4932003;29;19919;-91
2023/08/25 02:52:25;;;;;;;;;;;;;;;;;;4922422;29;19969;-90
2023/08/25 02:54:51;;;;;;;;;;;;;;;;;;4916489;29;20269;-91
2023/08/25 02:57:17;;;;;;;;;;;;;;;;;;4918046;29;19918;-91
2023/08/25 02:59:43;;;;;;;;;;;;;;;;;;4934485;29;19910;-90
2023/08/25 03:02:09;;;;;;;;;;;;;;;;;;4930653;28;20061;-92
2023/08/25 03:04:35;;;;;;;;;;;;;;;;;;4940015;28;19910;-91
2023/08/25 03:07:01;;;;;;;;;;;;;;;;;;4939625;28;19925;-91
2023/08/25 03:09:28;;;;;;;;;;;;;;;;;;4939038;28;19956;-92
2023/08/25 03:11:54;;;;;;;;;;;;;;;;;;4940659;28;19941;-91
2023/08/25 03:14:20;;;;;;;;;;;;;;;;;;4946260;28;20417;-92
2023/08/25 03:16:46;;;;;;;;;;;;;;;;;;4936872;28;19910;-91
2023/08/25 03:19:13;;;;;;;;;;;;;;;;;;4932673;28;20005;-91
2023/08/25 03:21:38;;;;;;;;;;;;;;;;;;4934843;28;19910;-91
2023/08/25 03:24:04;;;;;;;;;;;;;;;;;;4935287;28;20261;-91
2023/08/25 03:26:30;;;;;;;;;;;;;;;;;;4936213;28;19918;-91
2023/08/25 03:28:56;;;;;;;;;;;;;;;;;;4935725;28;20278;-92
2023/08/25 03:31:22;;;;;;;;;;;;;;;;;;4940072;29;19918;-90
2023/08/25 03:33:48;;;;;;;;;;;;;;;;;;4940625;28;19911;-91
2023/08/25 03:36:14;;;;;;;;;;;;;;;;;;4952540;28;19928;-91
2023/08/25 03:38:40;;;;;;;;;;;;;;;;;;4932505;29;19986;-91
2023/08/25 03:41:06;;;;;;;;;;;;;;;;;;4952797;28;19910;-91
2023/08/25 03:43:35;;;;;;;;;;;;;;;;;;4936162;29;19911;-91
2023/08/25 03:46:01;;;;;;;;;;;;;;;;;;4928845;28;19924;-91
2023/08/25 03:48:27;;;;;;;;;;;;;;;;;;4940346;28;19974;-93
2023/08/25 03:50:53;;;;;;;;;;;;;;;;;;4941118;28;20398;-91
2023/08/25 03:53:19;;;;;;;;;;;;;;;;;;4936353;29;20362;-92
2023/08/25 03:55:45;;;;;;;;;;;;;;;;;;4936710;28;20759;-92
2023/08/25 03:58:10;;;;;;;;;;;;;;;;;;4932324;29;20195;-91
2023/08/25 04:00:39;;;;;;;;;;;;;;;;;;4935696;28;19977;-92
2023/08/25 04:03:06;;;;;;;;;;;;;;;;;;4932752;28;19922;-90
2023/08/25 04:05:32;;;;;;;;;;;;;;;;;;4941543;28;19925;-91
2023/08/25 04:07:58;;;;;;;;;;;;;;;;;;4951701;28;19911;-91
2023/08/25 04:10:24;;;;;;;;;;;;;;;;;;4932406;29;19910;-93
2023/08/25 04:12:50;;;;;;;;;;;;;;;;;;4939803;29;19914;-92
2023/08/25 04:15:15;;;;;;;;;;;;;;;;;;4932197;29;19914;-91
2023/08/25 04:17:41;;;;;;;;;;;;;;;;;;4936967;29;19915;-92
2023/08/25 04:20:07;;;;;;;;;;;;;;;;;;4934149;28;19938;-91
2023/08/25 04:22:35;;;;;;;;;;;;;;;;;;4933498;29;19942;-92
2023/08/25 04:25:00;;;;;;;;;;;;;;;;;;4936463;29;19914;-92
2023/08/25 04:27:26;;;;;;;;;;;;;;;;;;4938582;28;19911;-92
2023/08/25 04:29:55;;;;;;;;;;;;;;;;;;4931198;28;20378;-91
2023/08/25 04:32:22;;;;;;;;;;;;;;;;;;4936081;29;19914;-92
2023/08/25 04:34:48;;;;;;;;;;;;;;;;;;4937148;28;19926;-91
2023/08/25 04:37:14;;;;;;;;;;;;;;;;;;4946630;28;19933;-91
2023/08/25 04:39:40;;;;;;;;;;;;;;;;;;4947765;28;19941;-91
2023/08/25 04:42:06;;;;;;;;;;;;;;;;;;4929990;28;19921;-91
2023/08/25 04:44:32;;;;;;;;;;;;;;;;;;4932284;28;19910;-91
2023/08/25 04:46:58;;;;;;;;;;;;;;;;;;4933133;28;20309;-91
2023/08/25 04:49:24;;;;;;;;;;;;;;;;;;4934750;28;20827;-91
2023/08/25 04:51:50;;;;;;;;;;;;;;;;;;4936463;29;19914;-92
2023/08/25 04:54:18;;;;;;;;;;;;;;;;;;4930667;28;19918;-91
2023/08/25 04:56:45;;;;;;;;;;;;;;;;;;4931491;28;19974;-92
2023/08/25 04:59:10;;;;;;;;;;;;;;;;;;4935758;29;19946;-91
2023/08/25 05:01:36;;;;;;;;;;;;;;;;;;4937334;29;19910;-92
2023/08/25 05:04:02;;;;;;;;;;;;;;;;;;4940095;28;19922;-91
2023/08/25 05:06:28;;;;;;;;;;;;;;;;;;4938777;28;19965;-91
2023/08/25 05:08:56;;;;;;;;;;;;;;;;;;4929231;28;20001;-90
2023/08/25 05:11:22;;;;;;;;;;;;;;;;;;4930681;29;19933;-91
2023/08/25 05:13:48;;;;;;;;;;;;;;;;;;4946327;28;20379;-92
2023/08/25 05:16:17;;;;;;;;;;;;;;;;;;4936525;28;19922;-92
2023/08/25 05:18:43;;;;;;;;;;;;;;;;;;4933936;28;19926;-91
2023/08/25 05:21:09;;;;;;;;;;;;;;;;;;4936928;28;19914;-92
2023/08/25 05:23:36;;;;;;;;;;;;;;;;;;4940294;29;19921;-90
2023/08/25 05:26:02;;;;;;;;;;;;;;;;;;4939976;28;19921;-91
2023/08/25 05:28:28;;;;;;;;;;;;;;;;;;4941208;29;19914;-90
2023/08/25 05:30:54;;;;;;;;;;;;;;;;;;4937441;28;19984;-90
2023/08/25 05:33:21;;;;;;;;;;;;;;;;;;4934410;29;19961;-92
2023/08/25 05:35:47;;;;;;;;;;;;;;;;;;4949734;28;19919;-91
2023/08/25 05:38:13;;;;;;;;;;;;;;;;;;4938978;28;19929;-92
2023/08/25 05:40:38;;;;;;;;;;;;;;;;;;4925756;29;19915;-91
2023/08/25 05:43:04;;;;;;;;;;;;;;;;;;4937048;28;20012;-90
2023/08/25 05:45:30;;;;;;;;;;;;;;;;;;4936317;28;20121;-91
2023/08/25 05:47:57;;;;;;;;;;;;;;;;;;4948130;28;19910;-91
2023/08/25 05:50:22;;;;;;;;;;;;;;;;;;4930838;29;19918;-91
2023/08/25 05:52:48;;;;;;;;;;;;;;;;;;4934753;29;19914;-91
2023/08/25 05:55:18;;;;;;;;;;;;;;;;;;4933208;28;19942;-91
2023/08/25 05:57:43;;;;;;;;;;;;;;;;;;4950102;28;19910;-91
2023/08/25 06:00:10;;;;;;;;;;;;;;;;;;4933280;28;19927;-88
2023/08/25 06:02:42;;;;;;;;;;;;;;;;;;4946959;28;19917;-88
2023/08/25 06:05:17;;;;;;;;;;;;;;;;;;4945928;28;19914;-88
2023/08/25 06:07:43;;;;;;;;;;;;;;;;;;4931134;28;19910;-85
2023/08/25 06:10:11;;;;;;;;;;;;;;;;;;4931021;28;20438;-88
2023/08/25 06:12:36;;;;;;;;;;;;;;;;;;4931755;28;19922;-89
2023/08/25 06:15:05;;;;;;;;;;;;;;;;;;4930358;28;19914;-88
2023/08/25 06:17:31;;;;;;;;;;;;;;;;;;4930150;28;19917;-88
2023/08/25 06:19:57;;;;;;;;;;;;;;;;;;4928196;28;20316;-88
2023/08/25 06:22:23;;;;;;;;;;;;;;;;;;4944753;28;19966;-88
2023/08/25 06:24:49;;;;;;;;;;;;;;;;;;4928322;28;19911;-89
2023/08/25 06:27:18;;;;;;;;;;;;;;;;;;4933634;28;19918;-88
2023/08/25 06:29:44;;;;;;;;;;;;;;;;;;4925453;29;20148;-88
2023/08/25 06:32:10;;;;;;;;;;;;;;;;;;4943750;28;19997;-88
2023/08/25 06:34:39;;;;;;;;;;;;;;;;;;4934676;29;19914;-87
2023/08/25 06:37:05;;;;;;;;;;;;;;;;;;4930384;29;19969;-88
2023/08/25 06:39:31;;;;;;;;;;;;;;;;;;4947159;28;19915;-88
2023/08/25 06:41:57;;;;;;;;;;;;;;;;;;4954126;28;19910;-88
2023/08/25 06:44:23;;;;;;;;;;;;;;;;;;4933149;28;19939;-87
2023/08/25 06:46:48;;;;;;;;;;;;;;;;;;4932255;29;20347;-88
2023/08/25 06:49:15;;;;;;;;;;;;;;;;;;4931094;29;19934;-88
2023/08/25 06:51:40;;;;;;;;;;;;;;;;;;4937424;29;19921;-85
2023/08/25 06:54:07;;;;;;;;;;;;;;;;;;4943776;28;19910;-88
2023/08/25 06:56:33;;;;;;;;;;;;;;;;;;4957236;28;20278;-88
2023/08/25 06:58:59;;;;;;;;;;;;;;;;;;4942511;28;19915;-87
2023/08/25 07:01:25;;;;;;;;;;;;;;;;;;4954783;28;19914;-87
2023/08/25 07:03:51;;;;;;;;;;;;;;;;;;4943194;28;19930;-88
2023/08/25 07:06:23;;;;;;;;;;;;;;;;;;4665327;28;8146334;-87
2023/08/25 07:08:50;;;;;;;;;;;;;;;;;;4937476;29;19921;-87
2023/08/25 07:11:15;;;;;;;;;;;;;;;;;;4936162;29;19918;-88
2023/08/25 07:13:41;;;;;;;;;;;;;;;;;;4932854;29;19921;-88
2023/08/25 07:16:07;;;;;;;;;;;;;;;;;;4946117;28;20294;-87
2023/08/25 07:18:33;;;;;;;;;;;;;;;;;;4941298;29;19929;-88
2023/08/25 07:21:00;;;;;;;;;;;;;;;;;;4935247;29;20394;-87
2023/08/25 07:23:26;;;;;;;;;;;;;;;;;;4940052;29;19933;-88
2023/08/25 07:25:52;;;;;;;;;;;;;;;;;;4938618;29;19914;-88
2023/08/25 07:28:18;;;;;;;;;;;;;;;;;;4934543;28;20294;-89
2023/08/25 07:30:43;;;;;;;;;;;;;;;;;;4935518;29;19911;-89
2023/08/25 07:33:09;;;;;;;;;;;;;;;;;;4941143;29;19917;-89
2023/08/25 07:35:35;;;;;;;;;;;;;;;;;;4934396;28;19928;-89
2023/08/25 07:38:02;;;;;;;;;;;;;;;;;;4939156;28;19918;-90
2023/08/25 07:40:31;;;;;;;;;;;;;;;;;;4952218;28;19917;-90
2023/08/25 07:42:58;;;;;;;;;;;;;;;;;;4938604;28;19914;-88
2023/08/25 07:45:24;;;;;;;;;;;;;;;;;;4934052;28;19910;-90
2023/08/25 07:47:50;;;;;;;;;;;;;;;;;;4950749;28;20434;-89
2023/08/25 07:50:16;;;;;;;;;;;;;;;;;;4937508;29;19910;-91
2023/08/25 07:52:42;;;;;;;;;;;;;;;;;;4933304;28;19941;-89
2023/08/25 07:55:08;;;;;;;;;;;;;;;;;;4943620;28;19915;-90
2023/08/25 07:57:34;;;;;;;;;;;;;;;;;;4934348;28;20552;-88
2023/08/25 08:00:00;;;;;;;;;;;;;;;;;;4939802;28;19910;-88
2023/08/25 08:02:26;;;;;;;;;;;;;;;;;;4933492;28;20052;-89
2023/08/25 08:04:52;;;;;;;;;;;;;;;;;;4932921;28;19914;-89
2023/08/25 08:07:18;;;;;;;;;;;;;;;;;;4935526;28;19926;-89
2023/08/25 08:09:44;;;;;;;;;;;;;;;;;;4931067;28;19923;-90
2023/08/25 08:12:10;;;;;;;;;;;;;;;;;;4930463;28;19918;-90
2023/08/25 08:14:36;;;;;;;;;;;;;;;;;;4936065;29;20007;-88
2023/08/25 08:17:03;;;;;;;;;;;;;;;;;;4936885;28;19926;-88
2023/08/25 08:19:29;;;;;;;;;;;;;;;;;;4933892;29;20346;-89
2023/08/25 08:21:55;;;;;;;;;;;;;;;;;;4932045;28;19918;-89
2023/08/25 08:24:21;;;;;;;;;;;;;;;;;;4929699;29;20327;-89
2023/08/25 08:26:47;;;;;;;;;;;;;;;;;;4947398;28;19918;-88
2023/08/25 08:29:13;;;;;;;;;;;;;;;;;;4933322;28;19912;-89
2023/08/25 08:31:40;;;;;;;;;;;;;;;;;;4929520;28;19984;-88
2023/08/25 08:34:06;;;;;;;;;;;;;;;;;;4930406;29;19918;-90
2023/08/25 08:36:32;;;;;;;;;;;;;;;;;;4946765;28;20285;-89
2023/08/25 08:38:58;;;;;;;;;;;;;;;;;;4948372;28;19919;-89
2023/08/25 08:41:24;;;;;;;;;;;;;;;;;;4940111;28;19910;-88
2023/08/25 08:43:50;;;;;;;;;;;;;;;;;;4930499;28;19918;-89
2023/08/25 08:46:16;;;;;;;;;;;;;;;;;;4932215;28;20312;-89
2023/08/25 08:48:43;;;;;;;;;;;;;;;;;;4935523;29;20129;-89
2023/08/25 08:51:09;;;;;;;;;;;;;;;;;;4935429;28;19911;-90
2023/08/25 08:53:38;;;;;;;;;;;;;;;;;;4927726;29;20390;-90
2023/08/25 08:56:04;;;;;;;;;;;;;;;;;;4927733;28;19922;-89
2023/08/25 08:58:30;;;;;;;;;;;;;;;;;;4928191;29;19922;-89
2023/08/25 09:00:56;;;;;;;;;;;;;;;;;;4931265;28;19914;-91
2023/08/25 09:03:22;;;;;;;;;;;;;;;;;;4952053;28;20279;-89
2023/08/25 09:05:48;;;;;;;;;;;;;;;;;;4932909;28;19914;-90
2023/08/25 09:08:14;;;;;;;;;;;;;;;;;;4932877;28;19918;-89
2023/08/25 09:10:40;;;;;;;;;;;;;;;;;;4933985;29;19935;-90
2023/08/25 09:13:06;;;;;;;;;;;;;;;;;;4934088;28;20012;-90
2023/08/25 09:15:33;;;;;;;;;;;;;;;;;;4934647;29;19923;-90
2023/08/25 09:18:02;;;;;;;;;;;;;;;;;;4942014;28;19986;-89
2023/08/25 09:20:28;;;;;;;;;;;;;;;;;;4936815;28;20037;-90
2023/08/25 09:22:55;;;;;;;;;;;;;;;;;;4934674;28;20267;-89
2023/08/25 09:28:06;;;;;;;;;;;;;;;;;;4951653;28;19961;-89
2023/08/25 09:30:32;;;;;;;;;;;;;;;;;;4950815;28;19918;-90
2023/08/25 09:32:58;;;;;;;;;;;;;;;;;;4950863;28;20023;-90
2023/08/25 09:35:24;;;;;;;;;;;;;;;;;;4928881;29;19914;-88
2023/08/25 09:37:50;;;;;;;;;;;;;;;;;;4949757;28;19914;-88
2023/08/25 09:40:16;;;;;;;;;;;;;;;;;;4946504;28;19922;-88
2023/08/25 09:42:42;;;;;;;;;;;;;;;;;;4948943;28;20145;-88
2023/08/25 09:45:09;;;;;;;;;;;;;;;;;;4931935;29;19910;-89
2023/08/25 09:47:35;;;;;;;;;;;;;;;;;;4935182;29;19962;-89
2023/08/25 09:50:01;;;;;;;;;;;;;;;;;;4938949;28;19950;-90
2023/08/25 09:52:26;;;;;;;;;;;;;;;;;;4933924;28;20860;-89
2023/08/25 09:54:52;;;;;;;;;;;;;;;;;;4937231;29;19921;-90
2023/08/25 09:57:18;;;;;;;;;;;;;;;;;;4932878;28;19919;-90
2023/08/25 09:59:44;;;;;;;;;;;;;;;;;;4930129;28;19966;-89
2023/08/25 10:02:10;;;;;;;;;;;;;;;;;;4942281;29;19962;-89
2023/08/25 10:04:37;;;;;;;;;;;;;;;;;;4940476;29;20256;-90
2023/08/25 10:07:05;;;;;;;;;;;;;;;;;;4935110;28;19923;-89
2023/08/25 10:09:30;;;;;;;;;;;;;;;;;;4932021;28;19920;-88
2023/08/25 10:11:56;;;;;;;;;;;;;;;;;;4950098;28;20211;-88
2023/08/25 10:14:22;;;;;;;;;;;;;;;;;;4951843;28;19914;-89
2023/08/25 10:16:49;;;;;;;;;;;;;;;;;;4933954;29;19976;-87
2023/08/25 10:19:15;;;;;;;;;;;;;;;;;;4933793;29;19911;-87
2023/08/25 10:21:44;;;;;;;;;;;;;;;;;;4958184;28;19922;-88
2023/08/25 10:24:11;;;;;;;;;;;;;;;;;;4950779;28;19997;-89
2023/08/25 10:26:37;;;;;;;;;;;;;;;;;;4941147;29;22153;-88
2023/08/25 10:29:03;;;;;;;;;;;;;;;;;;4937538;29;19981;-88
2023/08/25 10:31:30;;;;;;;;;;;;;;;;;;4931990;28;19910;-88
2023/08/25 10:33:56;;;;;;;;;;;;;;;;;;4943003;29;20275;-87
2023/08/25 10:36:22;;;;;;;;;;;;;;;;;;4936572;28;19919;-89
2023/08/25 10:38:48;;;;;;;;;;;;;;;;;;4938940;28;19964;-89
2023/08/25 10:41:14;;;;;;;;;;;;;;;;;;4929673;28;19918;-88
2023/08/25 10:43:40;;;;;;;;;;;;;;;;;;4940746;29;19949;-88
2023/08/25 10:46:09;;;;;;;;;;;;;;;;;;4936974;28;20334;-88
2023/08/25 10:48:35;;;;;;;;;;;;;;;;;;4945148;28;19914;-88
2023/08/25 10:51:01;;;;;;;;;;;;;;;;;;4935485;28;19970;-88
2023/08/25 10:53:27;;;;;;;;;;;;;;;;;;4933779;28;20378;-89
2023/08/25 10:55:53;;;;;;;;;;;;;;;;;;4935073;28;20675;-89
2023/08/25 10:58:19;;;;;;;;;;;;;;;;;;4932945;29;19915;-89
2023/08/25 11:00:45;;;;;;;;;;;;;;;;;;4933555;28;19919;-88
2023/08/25 11:03:12;;;;;;;;;;;;;;;;;;4937721;29;20006;-88
2023/08/25 11:05:38;;;;;;;;;;;;;;;;;;4949644;28;20404;-87
2023/08/25 11:08:04;;;;;;;;;;;;;;;;;;4936458;28;19918;-88
2023/08/25 11:10:30;;;;;;;;;;;;;;;;;;4940021;29;19950;-87
2023/08/25 11:12:56;;;;;;;;;;;;;;;;;;4952820;28;19934;-88
2023/08/25 11:15:22;;;;;;;;;;;;;;;;;;4931503;28;19911;-89
2023/08/25 11:17:48;;;;;;;;;;;;;;;;;;4937377;29;19918;-89
2023/08/25 11:20:14;;;;;;;;;;;;;;;;;;4940999;28;19910;-90
2023/08/25 11:22:40;;;;;;;;;;;;;;;;;;4937225;28;19921;-90
2023/08/25 11:25:06;;;;;;;;;;;;;;;;;;4938968;28;20418;-90
2023/08/25 11:27:32;;;;;;;;;;;;;;;;;;4943786;28;19925;-90
2023/08/25 11:29:58;;;;;;;;;;;;;;;;;;4944563;28;20354;-90
2023/08/25 11:32:24;;;;;;;;;;;;;;;;;;4958357;28;19911;-90
2023/08/25 11:34:50;;;;;;;;;;;;;;;;;;4941844;28;19918;-90
2023/08/25 11:37:16;;;;;;;;;;;;;;;;;;4934519;28;19949;-89
2023/08/25 11:39:42;;;;;;;;;;;;;;;;;;4937587;29;19918;-91
2023/08/25 11:42:08;;;;;;;;;;;;;;;;;;4939651;29;19930;-93
2023/08/25 11:44:35;;;;;;;;;;;;;;;;;;4944081;29;20301;-92
2023/08/25 11:47:00;;;;;;;;;;;;;;;;;;4936202;29;19921;-90
2023/08/25 11:49:26;;;;;;;;;;;;;;;;;;4937491;28;19918;-91
2023/08/25 11:51:53;;;;;;;;;;;;;;;;;;4937431;28;20387;-92
2023/08/25 11:54:19;;;;;;;;;;;;;;;;;;4938232;28;19914;-92
2023/08/25 11:56:45;;;;;;;;;;;;;;;;;;4950960;28;19915;-92
2023/08/25 11:59:12;;;;;;;;;;;;;;;;;;4950498;28;19925;-93
2023/08/25 12:01:44;;;;;;;;;;;;;;;;;;4933625;29;19914;-92
2023/08/25 12:04:11;;;;;;;;;;;;;;;;;;4933279;28;19910;-92
2023/08/25 12:06:40;;;;;;;;;;;;;;;;;;4936411;29;19914;-92
2023/08/25 12:09:06;;;;;;;;;;;;;;;;;;4935445;28;20422;-91
2023/08/25 12:11:32;;;;;;;;;;;;;;;;;;4928085;28;19918;-92
2023/08/25 12:13:58;;;;;;;;;;;;;;;;;;4936765;29;19911;-92
2023/08/25 12:16:24;;;;;;;;;;;;;;;;;;4933654;28;19926;-92
2023/08/25 12:18:53;;;;;;;;;;;;;;;;;;4935939;29;20418;-95
2023/08/25 12:21:22;;;;;;;;;;;;;;;;;;4936538;28;19913;-94
2023/08/25 12:23:48;;;;;;;;;;;;;;;;;;4936352;29;19925;-95
2023/08/25 12:26:14;;;;;;;;;;;;;;;;;;4942585;29;19993;-94
2023/08/25 12:28:43;;;;;;;;;;;;;;;;;;4941257;28;19982;-95
2023/08/25 12:31:09;;;;;;;;;;;;;;;;;;4936231;28;20494;-93
2023/08/25 12:33:42;;;;;;;;;;;;;;;;;;4937050;29;19953;-93
2023/08/25 12:36:10;;;;;;;;;;;;;;;;;;4946725;29;20290;-94
2023/08/25 12:38:36;;;;;;;;;;;;;;;;;;4936416;28;20039;-93
2023/08/25 12:41:04;;;;;;;;;;;;;;;;;;4943465;28;20203;-94
2023/08/25 12:43:30;;;;;;;;;;;;;;;;;;4940487;29;19925;-94
2023/08/25 12:45:56;;;;;;;;;;;;;;;;;;4941016;28;20295;-94
2023/08/25 12:48:26;;;;;;;;;;;;;;;;;;4941023;28;19914;-95
2023/08/25 12:50:54;;;;;;;;;;;;;;;;;;4941741;28;19918;-95
2023/08/25 12:53:29;;;;;;;;;;;;;;;;;;4937002;29;19914;-95
2023/08/25 12:55:55;;;;;;;;;;;;;;;;;;4942296;28;19918;-96
2023/08/25 12:58:44;;;;;;;;;;;;;;;;;;;;;
2023/08/25 13:01:27;;;;;;;;;;;;;;;;;;4957078;28;19914;-95
2023/08/25 13:07:38;;;;;;;;;;;;;;;;;;4962829;28;19936;-95
2023/08/25 13:09:54;;;;;;;;;;;;;;;;;;;;;
2023/08/25 13:12:23;;;;;;;;;;;;;;;;;;4952979;28;20022;-95
2023/08/25 13:14:58;;;;;;;;;;;;;;;;;;4926858;29;19958;-96
2023/08/25 13:20:20;;;;;;;;;;;;;;;;;;;;;
2023/08/25 13:22:56;;;;;;;;;;;;;;;;;;4941490;29;20010;-95
2023/08/25 13:25:28;;;;;;;;;;;;;;;;;;4936414;29;19926;-95
2023/08/25 13:27:55;;;;;;;;;;;;;;;;;;4935807;29;19915;-93
2023/08/25 13:30:31;;;;;;;;;;;;;;;;;;4931389;29;19911;-92
2023/08/25 13:33:10;;;;;;;;;;;;;;;;;;4922118;29;19915;-91
2023/08/25 13:35:36;;;;;;;;;;;;;;;;;;4929517;29;19953;-91
2023/08/25 13:38:02;;;;;;;;;;;;;;;;;;4919975;29;19919;-92
2023/08/25 13:40:28;;;;;;;;;;;;;;;;;;4923120;29;19906;-94
2023/08/25 13:42:54;;;;;;;;;;;;;;;;;;4922147;29;19917;-92
2023/08/25 13:45:20;;;;;;;;;;;;;;;;;;4928470;29;20009;-92
2023/08/25 13:47:55;;;;;;;;;;;;;;;;;;4923690;29;19915;-91
2023/08/25 13:50:21;;;;;;;;;;;;;;;;;;4918141;29;20045;-91
2023/08/25 13:52:47;;;;;;;;;;;;;;;;;;4915424;29;19943;-93
2023/08/25 13:55:20;;;;;;;;;;;;;;;;;;4922788;29;19966;-93
2023/08/25 13:57:47;;;;;;;;;;;;;;;;;;4916520;29;19934;-91
2023/08/25 14:00:13;;;;;;;;;;;;;;;;;;4915279;29;19915;-91
2023/08/25 14:02:49;;;;;;;;;;;;;;;;;;4922533;29;19934;-91
2023/08/25 14:05:17;;;;;;;;;;;;;;;;;;4912926;29;19938;-92
2023/08/25 14:07:43;;;;;;;;;;;;;;;;;;4918039;29;19918;-92
2023/08/25 14:10:09;;;;;;;;;;;;;;;;;;4914953;29;19910;-91
2023/08/25 14:12:37;;;;;;;;;;;;;;;;;;4933713;28;19958;-93
2023/08/25 14:15:03;;;;;;;;;;;;;;;;;;4940552;29;19978;-91
2023/08/25 14:17:32;;;;;;;;;;;;;;;;;;4953196;28;19919;-90
2023/08/25 14:20:04;;;;;;;;;;;;;;;;;;4933947;29;19965;-90
2023/08/25 14:22:30;;;;;;;;;;;;;;;;;;4937439;29;19933;-91
2023/08/25 14:24:56;;;;;;;;;;;;;;;;;;4933434;28;20159;-90
2023/08/25 14:27:22;;;;;;;;;;;;;;;;;;4939831;29;19984;-90
2023/08/25 14:29:51;;;;;;;;;;;;;;;;;;4934757;29;19910;-91
2023/08/25 14:32:17;;;;;;;;;;;;;;;;;;4935589;29;19924;-90
2023/08/25 14:34:45;;;;;;;;;;;;;;;;;;4950263;28;20434;-91
2023/08/25 14:37:11;;;;;;;;;;;;;;;;;;4955211;28;19966;-93
2023/08/25 14:39:37;;;;;;;;;;;;;;;;;;4941723;28;19919;-92
2023/08/25 14:42:03;;;;;;;;;;;;;;;;;;4933521;28;19911;-92
2023/08/25 14:44:29;;;;;;;;;;;;;;;;;;4951523;28;19918;-94
2023/08/25 14:46:55;;;;;;;;;;;;;;;;;;4947171;28;20001;-93
2023/08/25 14:49:21;;;;;;;;;;;;;;;;;;4933106;28;19921;-95
2023/08/25 14:51:47;;;;;;;;;;;;;;;;;;4935206;28;19910;-92
2023/08/25 14:54:13;;;;;;;;;;;;;;;;;;4933901;29;20021;-92
2023/08/25 14:56:40;;;;;;;;;;;;;;;;;;4933678;28;19914;-92
2023/08/25 14:59:07;;;;;;;;;;;;;;;;;;4933978;29;19919;-93
2023/08/25 15:01:33;;;;;;;;;;;;;;;;;;4940937;28;20271;-92
2023/08/25 15:03:59;;;;;;;;;;;;;;;;;;4936600;29;19926;-92
2023/08/25 15:06:25;;;;;;;;;;;;;;;;;;4948289;28;20294;-91
2023/08/25 15:08:50;;;;;;;;;;;;;;;;;;4930277;29;19918;-92
2023/08/25 15:11:16;;;;;;;;;;;;;;;;;;4932746;28;19939;-92
2023/08/25 15:13:42;;;;;;;;;;;;;;;;;;4929349;29;19922;-92
2023/08/25 15:16:08;;;;;;;;;;;;;;;;;;4928248;29;20331;-92
2023/08/25 15:18:39;;;;;;;;;;;;;;;;;;4913789;29;19929;-93
2023/08/25 15:21:05;;;;;;;;;;;;;;;;;;4923435;29;20394;-93
2023/08/25 15:23:31;;;;;;;;;;;;;;;;;;4929070;29;19929;-94
2023/08/25 15:25:56;;;;;;;;;;;;;;;;;;4919489;29;19915;-94
2023/08/25 15:28:23;;;;;;;;;;;;;;;;;;4916355;29;19926;-94
2023/08/25 15:30:55;;;;;;;;;;;;;;;;;;4912695;29;19918;-92
2023/08/25 15:33:22;;;;;;;;;;;;;;;;;;4911330;29;19917;-92
2023/08/25 15:35:48;;;;;;;;;;;;;;;;;;4912377;29;20605;-93
2023/08/25 15:38:13;;;;;;;;;;;;;;;;;;4920255;29;19954;-92
2023/08/25 15:40:39;;;;;;;;;;;;;;;;;;4929572;29;20001;-93
2023/08/25 15:43:05;;;;;;;;;;;;;;;;;;4919717;29;19914;-93
2023/08/25 15:45:31;;;;;;;;;;;;;;;;;;4916424;29;19915;-92
2023/08/25 15:47:57;;;;;;;;;;;;;;;;;;4917458;29;19911;-95
2023/08/25 15:50:23;;;;;;;;;;;;;;;;;;4921262;29;19910;-92
2023/08/25 15:52:49;;;;;;;;;;;;;;;;;;4919912;29;20292;-94
2023/08/25 15:55:15;;;;;;;;;;;;;;;;;;4915253;29;19910;-94
2023/08/25 15:57:41;;;;;;;;;;;;;;;;;;4918966;29;19915;-93
2023/08/25 16:00:08;;;;;;;;;;;;;;;;;;4915535;29;19938;-94
2023/08/25 16:02:34;;;;;;;;;;;;;;;;;;4920571;29;19914;-95
2023/08/25 16:05:00;;;;;;;;;;;;;;;;;;4922274;29;20235;-94
2023/08/25 16:07:32;;;;;;;;;;;;;;;;;;4919842;29;19914;-94
2023/08/25 16:09:59;;;;;;;;;;;;;;;;;;4916999;29;21630;-93
2023/08/25 16:12:25;;;;;;;;;;;;;;;;;;4932331;28;19960;-95
2023/08/25 16:14:51;;;;;;;;;;;;;;;;;;4942292;28;19910;-94
2023/08/25 16:17:17;;;;;;;;;;;;;;;;;;4939976;28;19919;-95
2023/08/25 16:19:43;;;;;;;;;;;;;;;;;;4937809;28;19921;-95
2023/08/25 16:22:09;;;;;;;;;;;;;;;;;;4933961;28;20000;-94
2023/08/25 16:24:37;;;;;;;;;;;;;;;;;;4940540;29;19917;-94
2023/08/25 16:27:03;;;;;;;;;;;;;;;;;;4951842;28;19919;-95
2023/08/25 16:29:45;;;;;;;;;;;;;;;;;;4938392;29;19910;-93
2023/08/25 16:32:10;;;;;;;;;;;;;;;;;;4935310;29;19920;-95
2023/08/25 16:34:36;;;;;;;;;;;;;;;;;;4942924;29;19910;-94
2023/08/25 16:37:03;;;;;;;;;;;;;;;;;;4939153;29;19960;-94
2023/08/25 16:39:29;;;;;;;;;;;;;;;;;;4938502;29;20255;-93
2023/08/25 16:41:55;;;;;;;;;;;;;;;;;;4935860;29;19922;-93
2023/08/25 16:44:21;;;;;;;;;;;;;;;;;;4952325;28;19917;-96
2023/08/25 16:46:47;;;;;;;;;;;;;;;;;;4942969;29;19910;-93
2023/08/25 16:49:13;;;;;;;;;;;;;;;;;;4951432;28;19941;-94
2023/08/25 16:51:40;;;;;;;;;;;;;;;;;;4952687;28;20128;-94
2023/08/25 16:54:06;;;;;;;;;;;;;;;;;;4939542;28;20414;-94